Time;durP1;ratioP1;P1;durP2;ratioP2;P2;SDS_P1;SDS_P2;PMS_P1;PMS_P2;Temp;Humidity;BMP_temperature;BMP_pressure;BME280_temperature;BME280_humidity;BME280_pressure;Samples;Min_cycle;Max_cycle;Signal;HPM_P1;HPM_P2
2022/01/09 00:01:42;;;;;;;8.90;6.60;;;4.90;99.90;;;;;;4991260;28;20038;-50
2022/01/09 00:04:08;;;;;;;11.93;9.13;;;4.90;99.90;;;;;;4990873;28;20038;-51
2022/01/09 00:06:33;;;;;;;12.70;8.93;;;4.80;99.90;;;;;;4991072;28;20039;-53
2022/01/09 00:08:59;;;;;;;12.85;9.25;;;4.90;99.90;;;;;;4957792;28;20042;-53
2022/01/09 00:11:26;;;;;;;12.45;9.40;;;4.90;99.90;;;;;;4991486;28;20121;-53
2022/01/09 00:13:53;;;;;;;11.50;8.32;;;4.90;99.90;;;;;;4990459;28;20525;-53
2022/01/09 00:16:20;;;;;;;13.23;9.57;;;4.90;99.90;;;;;;4973471;28;20094;-53
2022/01/09 00:18:47;;;;;;;13.05;9.60;;;4.90;99.90;;;;;;4972146;28;20411;-53
2022/01/09 00:21:12;;;;;;;13.95;9.25;;;4.90;99.90;;;;;;4992692;28;20066;-53
2022/01/09 00:23:38;;;;;;;12.23;9.07;;;4.90;99.90;;;;;;4994937;28;20581;-53
2022/01/09 00:26:06;;;;;;;12.25;10.13;;;4.90;99.90;;;;;;4995027;28;20035;-53
2022/01/09 00:28:32;;;;;;;10.98;8.10;;;4.90;99.90;;;;;;4994932;28;20097;-53
2022/01/09 00:30:58;;;;;;;13.02;8.93;;;4.90;99.90;;;;;;4994717;28;20429;-53
2022/01/09 00:33:23;;;;;;;10.80;7.68;;;4.90;99.90;;;;;;4981921;28;20172;-50
2022/01/09 00:35:49;;;;;;;13.00;9.07;;;4.90;99.90;;;;;;5000381;28;20042;-52
2022/01/09 00:38:15;;;;;;;13.30;9.38;;;5.00;99.90;;;;;;4992723;28;20570;-54
2022/01/09 00:40:41;;;;;;;16.85;12.63;;;5.00;99.90;;;;;;4944877;28;20113;-52
2022/01/09 00:43:09;;;;;;;14.75;11.25;;;4.90;99.90;;;;;;4989408;28;20462;-51
2022/01/09 00:45:39;;;;;;;16.10;12.05;;;4.90;99.90;;;;;;4961419;28;20038;-51
2022/01/09 00:48:05;;;;;;;20.27;12.30;;;4.80;99.90;;;;;;4991694;28;20045;-53
2022/01/09 00:50:31;;;;;;;18.13;12.60;;;4.80;99.90;;;;;;4993550;28;20379;-51
2022/01/09 00:52:56;;;;;;;18.70;12.95;;;4.70;99.90;;;;;;4995081;28;20044;-53
2022/01/09 00:55:22;;;;;;;18.30;12.63;;;4.70;99.90;;;;;;4961375;28;20046;-53
2022/01/09 00:57:47;;;;;;;15.70;11.45;;;4.70;99.90;;;;;;4994595;28;20049;-51
2022/01/09 01:00:14;;;;;;;16.50;11.48;;;4.80;99.90;;;;;;4994050;28;20045;-53
2022/01/09 01:02:40;;;;;;;16.48;10.95;;;4.70;99.90;;;;;;4993848;28;20097;-51
2022/01/09 01:05:07;;;;;;;15.48;10.98;;;4.70;99.90;;;;;;4995073;28;20112;-53
2022/01/09 01:07:33;;;;;;;17.67;11.63;;;4.70;99.90;;;;;;4989412;28;20043;-53
2022/01/09 01:10:00;;;;;;;18.90;12.05;;;4.70;99.90;;;;;;4995184;28;20038;-52
2022/01/09 01:12:27;;;;;;;17.10;11.20;;;4.70;99.90;;;;;;4994345;28;20048;-52
2022/01/09 01:14:53;;;;;;;16.70;11.30;;;4.70;99.90;;;;;;4994471;28;20061;-49
2022/01/09 01:17:20;;;;;;;17.00;11.18;;;4.70;99.90;;;;;;4988535;28;20046;-51
2022/01/09 01:19:46;;;;;;;16.08;10.80;;;4.70;99.90;;;;;;4977211;28;20049;-51
2022/01/09 01:22:12;;;;;;;14.38;10.70;;;4.70;99.90;;;;;;4994543;28;20034;-50
2022/01/09 01:24:39;;;;;;;18.45;11.10;;;4.80;99.90;;;;;;4961008;28;20042;-50
2022/01/09 01:27:04;;;;;;;15.73;11.00;;;4.80;99.90;;;;;;4984240;28;20045;-50
2022/01/09 01:29:30;;;;;;;17.15;11.38;;;4.80;99.90;;;;;;4992204;28;20042;-53
2022/01/09 01:31:55;;;;;;;16.05;11.07;;;4.80;99.90;;;;;;4993387;28;20038;-51
2022/01/09 01:34:21;;;;;;;16.50;11.25;;;4.70;99.90;;;;;;4993901;28;20061;-52
2022/01/09 01:36:46;;;;;;;16.77;11.15;;;4.80;99.90;;;;;;4994468;28;20097;-52
2022/01/09 01:39:12;;;;;;;15.93;10.98;;;4.70;99.90;;;;;;4994301;28;20038;-52
2022/01/09 01:41:38;;;;;;;15.57;10.88;;;4.70;99.90;;;;;;4983527;28;20401;-53
2022/01/09 01:44:09;;;;;;;16.27;11.23;;;4.80;99.90;;;;;;4992697;28;20057;-53
2022/01/09 01:46:34;;;;;;;16.00;11.63;;;4.80;99.90;;;;;;4960807;28;20089;-53
2022/01/09 01:49:00;;;;;;;15.20;10.40;;;4.80;99.90;;;;;;4960505;28;20042;-53
2022/01/09 01:51:25;;;;;;;14.85;10.52;;;4.80;99.90;;;;;;4988612;28;20082;-52
2022/01/09 01:53:54;;;;;;;15.05;10.95;;;4.80;99.90;;;;;;5004156;28;20121;-53
2022/01/09 01:56:20;;;;;;;14.48;10.65;;;4.80;99.90;;;;;;4986423;28;20034;-53
2022/01/09 01:58:47;;;;;;;14.73;10.80;;;4.80;99.90;;;;;;4989849;28;20549;-53
2022/01/09 02:01:13;;;;;;;14.45;9.73;;;4.90;99.90;;;;;;4986812;28;20117;-53
2022/01/09 02:03:39;;;;;;;15.32;9.88;;;4.90;99.90;;;;;;5004155;28;20133;-53
2022/01/09 02:06:05;;;;;;;13.23;9.65;;;4.90;99.90;;;;;;5005523;28;20113;-53
2022/01/09 02:08:31;;;;;;;13.27;9.63;;;5.00;99.90;;;;;;5013539;28;20041;-53
2022/01/09 02:10:57;;;;;;;13.32;9.23;;;5.00;99.90;;;;;;5000894;28;20043;-53
2022/01/09 02:13:22;;;;;;;13.82;9.13;;;5.00;99.90;;;;;;4992666;28;20084;-52
2022/01/09 02:15:48;;;;;;;12.15;8.77;;;5.00;99.90;;;;;;5002963;28;20115;-53
2022/01/09 02:18:20;;;;;;;15.63;8.77;;;5.00;99.90;;;;;;5005371;28;20138;-50
2022/01/09 02:20:47;;;;;;;11.00;7.50;;;5.00;99.90;;;;;;4952660;28;20092;-53
2022/01/09 02:23:15;;;;;;;10.90;7.97;;;5.10;99.90;;;;;;4959950;28;20042;-53
2022/01/09 02:25:42;;;;;;;11.75;8.13;;;5.10;99.90;;;;;;4985480;28;20118;-53
2022/01/09 02:28:09;;;;;;;11.57;7.65;;;5.10;99.90;;;;;;4992401;28;20129;-50
2022/01/09 02:30:36;;;;;;;11.20;7.78;;;5.20;99.90;;;;;;4991298;28;20046;-53
2022/01/09 02:33:04;;;;;;;12.48;7.47;;;5.20;99.90;;;;;;4992880;28;20042;-53
2022/01/09 02:35:32;;;;;;;12.38;7.28;;;5.20;99.90;;;;;;4993404;28;20054;-53
2022/01/09 02:37:58;;;;;;;13.73;6.53;;;5.20;99.90;;;;;;4976211;28;20080;-52
2022/01/09 02:40:23;;;;;;;12.98;6.47;;;5.30;99.90;;;;;;4993220;28;20530;-52
2022/01/09 02:42:53;;;;;;;12.95;7.00;;;5.30;99.90;;;;;;4990378;28;20042;-52
2022/01/09 02:45:22;;;;;;;10.93;6.55;;;5.30;99.90;;;;;;4971585;28;20042;-50
2022/01/09 02:47:49;;;;;;;10.35;6.30;;;5.30;99.90;;;;;;4973813;28;20113;-53
2022/01/09 02:50:31;;;;;;;9.73;6.03;;;5.40;99.90;;;;;;4993220;28;20117;-50
2022/01/09 02:53:11;;;;;;;;;;;5.40;99.90;;;;;;4992508;28;20113;-49
2022/01/09 02:55:37;;;;;;;16.00;5.00;;;5.40;99.90;;;;;;4973657;28;19922;-52
2022/01/09 02:58:03;;;;;;;14.90;4.82;;;5.50;99.90;;;;;;4966173;28;20073;-51
2022/01/09 03:00:34;;;;;;;12.60;4.65;;;5.50;99.90;;;;;;4992974;28;20391;-53
2022/01/09 03:03:00;;;;;;;16.75;4.82;;;5.60;99.90;;;;;;4992780;28;20061;-52
2022/01/09 03:05:27;;;;;;;16.98;4.80;;;5.60;99.90;;;;;;4992773;28;20508;-53
2022/01/09 03:07:52;;;;;;;18.00;3.97;;;5.60;99.90;;;;;;4992853;28;20526;-53
2022/01/09 03:10:20;;;;;;;19.58;3.80;;;5.60;99.90;;;;;;4992860;28;20125;-53
2022/01/09 03:12:47;;;;;;;16.88;3.70;;;5.70;99.90;;;;;;4991766;28;20038;-52
2022/01/09 03:15:13;;;;;;;22.60;3.58;;;5.80;99.90;;;;;;4992967;28;20049;-53
2022/01/09 03:17:39;;;;;;;18.75;3.42;;;5.80;99.90;;;;;;4992618;28;20038;-53
2022/01/09 03:20:09;;;;;;;22.17;3.90;;;5.80;99.90;;;;;;4992619;28;20041;-53
2022/01/09 03:22:34;;;;;;;20.65;3.35;;;5.90;99.90;;;;;;4991902;28;20038;-53
2022/01/09 03:25:00;;;;;;;29.45;2.92;;;5.90;99.90;;;;;;4990521;28;20560;-53
2022/01/09 03:27:25;;;;;;;29.98;3.85;;;6.00;99.90;;;;;;4991869;28;20030;-52
2022/01/09 03:29:51;;;;;;;30.23;4.28;;;6.00;99.90;;;;;;4992593;28;20050;-52
2022/01/09 03:32:16;;;;;;;28.35;4.25;;;6.00;99.90;;;;;;4992187;28;20038;-54
2022/01/09 03:34:42;;;;;;;31.55;4.60;;;6.00;99.90;;;;;;4992064;28;20046;-53
2022/01/09 03:37:38;;;;;;;32.42;3.95;;;6.00;99.90;;;;;;4995284;28;20034;-51
2022/01/09 03:40:06;;;;;;;37.50;4.47;;;6.00;99.90;;;;;;4979820;28;20038;-53
2022/01/09 03:42:31;;;;;;;34.70;5.38;;;6.00;99.90;;;;;;4991566;28;20045;-53
2022/01/09 03:44:57;;;;;;;33.17;4.82;;;6.00;99.90;;;;;;4991703;28;20118;-53
2022/01/09 03:47:22;;;;;;;29.73;4.70;;;6.00;99.90;;;;;;4992142;28;20042;-53
2022/01/09 03:49:50;;;;;;;39.10;5.40;;;6.10;99.90;;;;;;4992368;28;20046;-53
2022/01/09 03:52:16;;;;;;;39.05;6.03;;;6.10;99.90;;;;;;4992148;28;20116;-53
2022/01/09 03:54:42;;;;;;;39.15;5.47;;;6.10;99.90;;;;;;4985640;28;20039;-53
2022/01/09 03:57:08;;;;;;;32.17;4.80;;;6.10;99.90;;;;;;4988517;28;20045;-53
2022/01/09 03:59:33;;;;;;;39.85;4.68;;;6.10;99.90;;;;;;4996243;28;20066;-53
2022/01/09 04:02:00;;;;;;;34.42;4.90;;;6.10;99.90;;;;;;4995911;28;20066;-53
2022/01/09 04:04:26;;;;;;;41.00;4.93;;;6.20;99.90;;;;;;4996276;28;20050;-53
2022/01/09 04:06:51;;;;;;;35.55;5.65;;;6.20;99.90;;;;;;4978622;28;20072;-53
2022/01/09 04:09:20;;;;;;;30.27;4.40;;;6.20;99.90;;;;;;4996107;28;20044;-53
2022/01/09 04:11:48;;;;;;;32.78;5.18;;;6.20;99.90;;;;;;4995773;28;20046;-53
2022/01/09 04:14:14;;;;;;;35.15;5.25;;;6.20;99.90;;;;;;4995739;28;20112;-53
2022/01/09 04:16:40;;;;;;;36.30;4.90;;;6.20;99.90;;;;;;4978619;28;20050;-53
2022/01/09 04:19:06;;;;;;;39.65;4.80;;;6.20;99.90;;;;;;4995748;28;20097;-53
2022/01/09 04:21:31;;;;;;;30.05;3.70;;;6.20;99.90;;;;;;4949985;28;20043;-52
2022/01/09 04:23:57;;;;;;;30.80;5.95;;;6.20;99.90;;;;;;4978942;28;20113;-53
2022/01/09 04:26:22;;;;;;;32.35;4.25;;;6.20;99.90;;;;;;4995320;28;20038;-53
2022/01/09 04:28:48;;;;;;;33.30;4.07;;;6.30;99.90;;;;;;4995417;28;20046;-53
2022/01/09 04:31:15;;;;;;;34.53;5.10;;;6.20;99.90;;;;;;4995592;28;20402;-53
2022/01/09 04:33:41;;;;;;;21.80;3.72;;;6.20;99.90;;;;;;4975436;28;20042;-53
2022/01/09 04:36:07;;;;;;;29.80;3.50;;;6.20;99.90;;;;;;4976152;28;20419;-53
2022/01/09 04:38:33;;;;;;;25.80;3.97;;;6.20;99.90;;;;;;4976219;28;20039;-52
2022/01/09 04:40:58;;;;;;;28.27;4.32;;;6.20;99.90;;;;;;4989409;28;20077;-51
2022/01/09 04:43:24;;;;;;;22.40;4.35;;;6.30;99.90;;;;;;4995249;28;20121;-53
2022/01/09 04:45:50;;;;;;;29.83;4.45;;;6.30;99.90;;;;;;4996072;28;20049;-50
2022/01/09 04:48:15;;;;;;;29.55;3.78;;;6.30;99.90;;;;;;4961692;28;20054;-53
2022/01/09 04:50:43;;;;;;;19.05;3.17;;;6.20;99.90;;;;;;4995757;28;20069;-53
2022/01/09 04:53:09;;;;;;;24.67;3.55;;;6.20;99.90;;;;;;4995662;28;20050;-52
2022/01/09 04:55:41;;;;;;;20.85;3.47;;;6.20;99.90;;;;;;4994218;28;20047;-51
2022/01/09 04:58:08;;;;;;;22.92;3.40;;;6.20;99.90;;;;;;4977989;28;20126;-49
2022/01/09 05:00:34;;;;;;;22.00;3.20;;;6.20;99.90;;;;;;4978525;28;20132;-50
2022/01/09 05:03:00;;;;;;;20.67;3.47;;;6.20;99.90;;;;;;4988462;28;20070;-49
2022/01/09 05:05:26;;;;;;;19.92;3.33;;;6.10;99.90;;;;;;4994979;28;20098;-50
2022/01/09 05:07:51;;;;;;;18.08;2.83;;;6.20;99.90;;;;;;4994915;28;20054;-49
2022/01/09 05:10:17;;;;;;;19.45;2.40;;;6.20;99.90;;;;;;4994954;28;20038;-49
2022/01/09 05:12:42;;;;;;;17.02;2.40;;;6.20;99.90;;;;;;4994761;28;20085;-48
2022/01/09 05:15:09;;;;;;;14.65;2.47;;;6.10;99.90;;;;;;4993440;28;20038;-53
2022/01/09 05:17:35;;;;;;;15.65;2.58;;;6.10;99.90;;;;;;4956339;28;20047;-52
2022/01/09 05:20:01;;;;;;;13.95;2.35;;;6.10;99.90;;;;;;4994871;28;20026;-52
2022/01/09 05:22:28;;;;;;;16.50;2.75;;;6.10;99.90;;;;;;4994522;28;20409;-54
2022/01/09 05:24:58;;;;;;;22.17;3.40;;;6.10;99.90;;;;;;4994457;28;20042;-53
2022/01/09 05:27:24;;;;;;;21.60;3.15;;;6.10;99.90;;;;;;4994455;28;20066;-51
2022/01/09 05:29:50;;;;;;;15.30;3.05;;;6.00;99.90;;;;;;4994606;28;20038;-53
2022/01/09 05:32:16;;;;;;;15.82;2.88;;;6.00;99.90;;;;;;4994748;28;20094;-53
2022/01/09 05:37:15;;;;;;;18.23;3.05;;;6.00;99.90;;;;;;5010471;28;20042;-49
2022/01/09 05:39:41;;;;;;;18.65;2.78;;;6.00;99.90;;;;;;5023774;28;20512;-50
2022/01/09 05:42:13;;;;;;;20.27;2.95;;;5.90;99.90;;;;;;5013430;28;20582;-51
2022/01/09 05:44:39;;;;;;;17.37;2.73;;;5.90;99.90;;;;;;5013803;28;20069;-52
2022/01/09 05:47:05;;;;;;;20.88;3.13;;;5.90;99.90;;;;;;4994421;28;20073;-51
2022/01/09 05:49:31;;;;;;;23.27;3.22;;;5.90;99.90;;;;;;5005690;28;20049;-53
2022/01/09 05:51:57;;;;;;;20.38;3.05;;;5.90;99.90;;;;;;4991200;28;20494;-52
2022/01/09 05:54:22;;;;;;;22.30;3.75;;;5.90;99.90;;;;;;4998837;28;20054;-51
2022/01/09 05:56:48;;;;;;;13.63;3.03;;;5.90;99.90;;;;;;5005462;28;20551;-48
2022/01/09 05:59:13;;;;;;;22.33;3.28;;;5.90;99.90;;;;;;4998712;28;20450;-50
2022/01/09 06:01:39;;;;;;;19.63;2.58;;;5.90;99.90;;;;;;4993985;28;20046;-52
2022/01/09 06:04:05;;;;;;;13.73;2.50;;;5.90;99.90;;;;;;4993716;28;20077;-49
2022/01/09 06:06:34;;;;;;;24.33;2.60;;;5.80;99.90;;;;;;4993433;28;20490;-49
2022/01/09 06:09:00;;;;;;;17.67;2.40;;;5.80;99.90;;;;;;4992753;28;20073;-52
2022/01/09 06:11:25;;;;;;;16.50;2.13;;;5.80;99.90;;;;;;4993823;28;20069;-52
2022/01/09 06:13:51;;;;;;;10.60;2.03;;;5.80;99.90;;;;;;4980496;28;20039;-49
2022/01/09 06:16:16;;;;;;;12.38;2.05;;;5.80;99.90;;;;;;4974282;28;20072;-51
2022/01/09 06:18:42;;;;;;;20.13;2.67;;;5.80;99.90;;;;;;4973541;28;20039;-53
2022/01/09 06:21:07;;;;;;;17.17;2.92;;;5.80;99.90;;;;;;4985744;28;20043;-52
2022/01/09 06:23:33;;;;;;;12.20;2.20;;;5.80;99.90;;;;;;4993113;28;20038;-51
2022/01/09 06:25:58;;;;;;;14.32;2.17;;;5.70;99.90;;;;;;4993281;28;20038;-51
2022/01/09 06:28:24;;;;;;;14.70;2.47;;;5.70;99.90;;;;;;4993520;28;20069;-50
2022/01/09 06:30:50;;;;;;;14.05;2.47;;;5.70;99.90;;;;;;4988787;28;20050;-49
2022/01/09 06:33:15;;;;;;;9.93;2.40;;;5.70;99.90;;;;;;4994659;28;20057;-49
2022/01/09 06:35:42;;;;;;;13.13;2.08;;;5.70;99.90;;;;;;5003876;28;20041;-50
2022/01/09 06:38:08;;;;;;;14.98;2.65;;;5.70;99.90;;;;;;4992987;28;20042;-48
2022/01/09 06:40:34;;;;;;;15.07;2.45;;;5.70;99.90;;;;;;4991491;28;20042;-50
2022/01/09 06:43:00;;;;;;;15.57;2.25;;;5.70;99.90;;;;;;4993301;28;20038;-50
2022/01/09 06:45:27;;;;;;;22.75;2.65;;;5.70;99.90;;;;;;4992515;28;20121;-49
2022/01/09 06:47:54;;;;;;;12.45;2.20;;;5.60;99.90;;;;;;4992985;28;20074;-49
2022/01/09 06:50:21;;;;;;;11.57;1.90;;;5.60;99.90;;;;;;4992103;28;20545;-50
2022/01/09 06:52:46;;;;;;;14.52;2.45;;;5.60;99.90;;;;;;4992286;28;20112;-49
2022/01/09 06:55:12;;;;;;;10.85;1.98;;;5.60;99.90;;;;;;4992827;28;20042;-49
2022/01/09 06:57:39;;;;;;;9.85;2.00;;;5.60;99.90;;;;;;4993142;28;20038;-50
2022/01/09 07:00:07;;;;;;;14.55;2.17;;;5.60;99.90;;;;;;4992891;28;20053;-49
2022/01/09 07:02:32;;;;;;;9.65;2.40;;;5.50;99.90;;;;;;4992559;28;20044;-51
2022/01/09 07:04:58;;;;;;;9.25;1.38;;;5.60;99.90;;;;;;4991441;28;20038;-48
2022/01/09 07:07:23;;;;;;;10.18;2.20;;;5.50;99.90;;;;;;4974589;28;20078;-48
2022/01/09 07:09:49;;;;;;;9.98;1.80;;;5.50;99.90;;;;;;4985129;28;20113;-48
2022/01/09 07:12:14;;;;;;;10.55;1.85;;;5.50;99.90;;;;;;4992636;28;20125;-48
2022/01/09 07:14:40;;;;;;;11.93;1.88;;;5.50;99.90;;;;;;4992589;28;20045;-52
2022/01/09 07:17:06;;;;;;;11.45;1.80;;;5.50;99.90;;;;;;4992295;28;20045;-48
2022/01/09 07:19:31;;;;;;;10.93;2.30;;;5.50;99.90;;;;;;4992239;28;20046;-48
2022/01/09 07:21:57;;;;;;;12.75;1.98;;;5.50;99.90;;;;;;4995641;28;20394;-47
2022/01/09 07:24:22;;;;;;;8.40;1.65;;;5.50;99.90;;;;;;4996297;28;20049;-47
2022/01/09 07:26:48;;;;;;;8.93;2.05;;;5.50;99.90;;;;;;4996613;28;20042;-48
2022/01/09 07:29:13;;;;;;;11.80;2.10;;;5.50;99.90;;;;;;4994394;28;20092;-48
2022/01/09 07:31:39;;;;;;;11.90;1.90;;;5.40;99.90;;;;;;4984003;28;20046;-48
2022/01/09 07:34:05;;;;;;;13.38;2.08;;;5.40;99.90;;;;;;4981861;28;20056;-49
2022/01/09 07:36:31;;;;;;;14.02;2.22;;;5.40;99.90;;;;;;4983831;28;20038;-48
2022/01/09 07:38:57;;;;;;;8.93;1.70;;;5.40;99.90;;;;;;4995862;28;20406;-48
2022/01/09 07:41:23;;;;;;;6.65;1.65;;;5.40;99.90;;;;;;4996837;28;20046;-48
2022/01/09 07:43:49;;;;;;;9.23;1.80;;;5.40;99.90;;;;;;4995559;28;20042;-49
2022/01/09 07:46:14;;;;;;;8.70;2.20;;;5.40;99.90;;;;;;4995663;28;20185;-49
2022/01/09 07:48:40;;;;;;;11.82;1.83;;;5.40;99.90;;;;;;4995797;28;20125;-49
2022/01/09 07:51:06;;;;;;;9.90;1.80;;;5.40;99.90;;;;;;4995990;28;20038;-50
2022/01/09 07:53:32;;;;;;;13.15;1.80;;;5.30;99.90;;;;;;4995696;28;20026;-49
2022/01/09 07:55:58;;;;;;;8.10;1.65;;;5.40;99.90;;;;;;4996276;28;20037;-48
2022/01/09 07:58:23;;;;;;;10.75;1.98;;;5.30;99.90;;;;;;5010349;28;20053;-49
2022/01/09 08:00:49;;;;;;;14.15;1.92;;;5.30;99.90;;;;;;5003285;28;20038;-49
2022/01/09 08:03:15;;;;;;;9.70;1.55;;;5.30;99.90;;;;;;4975390;28;20097;-49
2022/01/09 08:05:41;;;;;;;9.07;1.80;;;5.30;99.90;;;;;;4969217;28;20048;-48
2022/01/09 08:08:06;;;;;;;10.82;1.83;;;5.30;99.90;;;;;;5004332;28;20220;-48
2022/01/09 08:10:33;;;;;;;12.27;1.80;;;5.30;99.90;;;;;;5010689;28;20484;-48
2022/01/09 08:13:00;;;;;;;11.68;2.40;;;5.30;99.90;;;;;;4992617;28;20414;-48
2022/01/09 08:15:29;;;;;;;8.90;1.67;;;5.40;99.90;;;;;;4973275;28;20038;-48
2022/01/09 08:17:55;;;;;;;13.20;1.88;;;5.40;99.90;;;;;;4995392;28;20041;-48
2022/01/09 08:20:21;;;;;;;7.43;2.00;;;5.30;99.90;;;;;;4995611;28;20046;-48
2022/01/09 08:22:47;;;;;;;10.57;1.58;;;5.30;99.90;;;;;;4992834;28;20376;-49
2022/01/09 08:25:16;;;;;;;9.63;1.80;;;5.40;99.90;;;;;;4993139;28;20054;-49
2022/01/09 08:27:44;;;;;;;9.20;1.98;;;5.40;99.90;;;;;;4992692;28;20042;-49
2022/01/09 08:30:10;;;;;;;12.80;2.10;;;5.40;99.90;;;;;;4992031;28;20045;-48
2022/01/09 08:32:37;;;;;;;11.23;1.50;;;5.40;99.90;;;;;;4990831;28;20490;-50
2022/01/09 08:35:04;;;;;;;12.98;2.63;;;5.30;99.90;;;;;;4991682;28;20042;-49
2022/01/09 08:37:30;;;;;;;10.93;2.22;;;5.40;99.90;;;;;;4992541;28;20521;-48
2022/01/09 08:39:55;;;;;;;17.33;2.63;;;5.30;99.90;;;;;;4992568;28;20035;-48
2022/01/09 08:42:21;;;;;;;12.18;2.10;;;5.30;99.90;;;;;;4994443;28;20093;-49
2022/01/09 08:44:47;;;;;;;15.93;2.17;;;5.30;99.90;;;;;;4995763;28;20085;-49
2022/01/09 08:47:12;;;;;;;12.65;1.85;;;5.30;99.90;;;;;;4995722;28;20046;-49
2022/01/09 08:49:38;;;;;;;9.20;2.03;;;5.20;99.90;;;;;;4995065;28;20042;-49
2022/01/09 08:52:04;;;;;;;12.80;2.20;;;5.20;99.90;;;;;;4992965;28;20406;-50
2022/01/09 08:54:30;;;;;;;13.32;2.00;;;5.20;99.90;;;;;;4990069;28;20042;-50
2022/01/09 08:56:57;;;;;;;11.25;2.00;;;5.20;99.90;;;;;;4994655;28;20502;-49
2022/01/09 08:59:22;;;;;;;14.90;2.63;;;5.10;99.90;;;;;;4994509;28;20042;-49
2022/01/09 09:01:49;;;;;;;13.77;2.42;;;5.10;99.90;;;;;;4989629;28;20030;-49
2022/01/09 09:04:15;;;;;;;12.30;1.83;;;5.10;99.90;;;;;;4998737;28;20038;-52
2022/01/09 09:06:41;;;;;;;11.93;2.20;;;5.10;99.90;;;;;;4994093;28;20081;-51
2022/01/09 09:09:07;;;;;;;15.52;2.47;;;5.20;99.90;;;;;;4991739;28;20069;-50
2022/01/09 09:11:33;;;;;;;13.57;2.30;;;5.10;99.90;;;;;;4992332;28;20038;-50
2022/01/09 09:13:59;;;;;;;13.63;2.75;;;5.20;99.90;;;;;;4994382;28;20042;-49
2022/01/09 09:16:24;;;;;;;17.27;2.78;;;5.20;99.90;;;;;;4995272;28;20085;-49
2022/01/09 09:18:50;;;;;;;20.63;3.00;;;5.20;99.90;;;;;;4995172;28;20117;-49
2022/01/09 09:21:16;;;;;;;20.08;2.45;;;5.30;99.90;;;;;;4978109;28;20041;-49
2022/01/09 09:23:42;;;;;;;17.02;3.13;;;5.30;99.90;;;;;;4960238;28;20042;-49
2022/01/09 09:26:09;;;;;;;16.63;2.85;;;5.30;99.90;;;;;;4994876;28;20042;-49
2022/01/09 09:28:36;;;;;;;16.35;2.78;;;5.40;99.90;;;;;;4994999;28;20042;-49
2022/01/09 09:31:02;;;;;;;16.23;2.70;;;5.40;99.90;;;;;;4994941;28;20073;-50
2022/01/09 09:33:28;;;;;;;12.25;2.63;;;5.40;99.90;;;;;;4993696;28;20049;-49
2022/01/09 09:35:54;;;;;;;27.98;2.97;;;5.40;99.90;;;;;;4994419;28;20050;-50
2022/01/09 09:38:19;;;;;;;19.00;3.33;;;5.40;99.90;;;;;;4993342;28;20117;-49
2022/01/09 09:40:45;;;;;;;18.80;3.00;;;5.40;99.90;;;;;;4992932;28;20475;-49
2022/01/09 09:43:11;;;;;;;13.38;3.15;;;5.40;99.90;;;;;;4995084;28;20038;-49
2022/01/09 09:45:36;;;;;;;15.10;2.92;;;5.50;99.90;;;;;;4994446;28;20042;-51
2022/01/09 09:48:02;;;;;;;16.33;2.92;;;5.50;99.90;;;;;;4978075;28;20055;-53
2022/01/09 09:50:28;;;;;;;16.88;2.85;;;5.50;99.90;;;;;;4975542;28;20141;-49
2022/01/09 09:52:54;;;;;;;16.98;3.20;;;5.50;99.90;;;;;;4974729;28;20043;-49
2022/01/09 09:55:19;;;;;;;22.08;3.35;;;5.50;99.90;;;;;;4977357;28;20042;-50
2022/01/09 09:57:45;;;;;;;17.27;3.30;;;5.50;99.90;;;;;;4986177;28;20049;-50
2022/01/09 10:00:14;;;;;;;18.05;3.20;;;5.50;99.90;;;;;;4985938;28;20038;-51
2022/01/09 10:02:58;;;;;;;24.17;3.28;;;5.50;99.90;;;;;;4988717;28;20038;-52
2022/01/09 10:05:35;;;;;;;20.13;3.10;;;5.60;99.90;;;;;;4992256;28;20041;-49
2022/01/09 10:08:08;;;;;;;18.38;3.42;;;5.60;99.90;;;;;;4985063;28;20113;-49
2022/01/09 10:10:34;;;;;;;;;;;5.60;99.90;;;;;;4982723;28;20046;-50
2022/01/09 10:13:14;;;;;;;20.83;2.90;;;5.60;99.90;;;;;;4981248;28;19922;-51
2022/01/09 10:15:47;;;;;;;24.55;3.08;;;5.60;99.90;;;;;;4972034;28;20112;-51
2022/01/09 10:18:13;;;;;;;19.02;3.25;;;5.70;99.90;;;;;;4987924;28;20169;-51
2022/01/09 10:20:38;;;;;;;15.05;3.33;;;5.70;99.90;;;;;;4984545;28;20126;-49
2022/01/09 10:23:04;;;;;;;14.70;2.70;;;5.80;99.90;;;;;;4989834;28;20038;-49
2022/01/09 10:25:33;;;;;;;21.10;3.22;;;5.80;99.90;;;;;;4985745;28;20117;-50
2022/01/09 10:28:01;;;;;;;18.02;3.72;;;5.90;99.90;;;;;;4987059;28;20042;-51
2022/01/09 10:30:39;;;;;;;16.48;3.22;;;5.90;99.90;;;;;;4986775;28;20057;-49
2022/01/09 10:33:16;;;;;;;15.18;3.13;;;6.00;99.90;;;;;;4967231;28;20077;-50
2022/01/09 10:35:43;;;;;;;13.98;2.58;;;6.10;99.90;;;;;;4985159;28;20042;-50
2022/01/09 10:38:21;;;;;;;15.65;3.22;;;6.10;99.90;;;;;;4988227;28;20038;-53
2022/01/09 10:40:52;;;;;;;13.45;2.95;;;6.20;99.90;;;;;;4986025;28;20038;-50
2022/01/09 10:43:21;;;;;;;19.98;2.97;;;6.20;99.90;;;;;;4988508;28;20038;-49
2022/01/09 10:46:01;;;;;;;18.70;3.00;;;6.30;99.90;;;;;;4981034;28;20038;-49
2022/01/09 10:48:32;;;;;;;14.43;2.78;;;6.20;99.90;;;;;;4991166;28;20124;-49
2022/01/09 10:50:59;;;;;;;19.88;2.78;;;6.30;99.90;;;;;;4990179;28;20057;-51
2022/01/09 10:53:29;;;;;;;18.23;2.75;;;6.30;99.90;;;;;;4987801;28;20478;-49
2022/01/09 10:56:00;;;;;;;14.98;2.85;;;6.20;99.90;;;;;;4987376;28;20038;-49
2022/01/09 10:58:27;;;;;;;15.25;2.78;;;6.20;99.90;;;;;;4986036;28;20165;-49
2022/01/09 11:01:11;;;;;;;20.42;3.30;;;6.20;99.90;;;;;;4988777;28;20139;-53
2022/01/09 11:03:39;;;;;;;19.40;2.70;;;6.30;99.90;;;;;;4982845;28;20145;-53
2022/01/09 11:06:06;;;;;;;17.05;2.55;;;6.20;99.90;;;;;;4975654;28;20034;-54
2022/01/09 11:08:35;;;;;;;17.80;2.50;;;6.30;99.90;;;;;;4977079;28;20503;-49
2022/01/09 11:11:02;;;;;;;18.60;3.72;;;6.20;99.90;;;;;;4976890;28;20038;-51
2022/01/09 11:13:28;;;;;;;14.25;2.60;;;6.20;99.90;;;;;;4975878;28;20041;-51
2022/01/09 11:18:42;;;;;;;11.63;2.28;;;6.30;99.90;;;;;;4981029;28;20402;-51
2022/01/09 11:21:08;;;;;;;12.60;2.42;;;6.30;99.90;;;;;;4977818;28;20035;-49
2022/01/09 11:24:04;;;;;;;19.08;2.70;;;6.30;99.90;;;;;;4985442;28;20096;-50
2022/01/09 11:26:57;;;;;;;11.98;2.35;;;6.30;99.90;;;;;;4980441;28;20082;-52
2022/01/09 11:29:29;;;;;;;10.60;2.55;;;6.30;99.90;;;;;;4979844;28;20043;-52
2022/01/09 11:32:08;;;;;;;16.95;2.55;;;6.30;99.90;;;;;;4977513;28;20042;-52
2022/01/09 11:34:42;;;;;;;14.95;2.25;;;6.30;99.90;;;;;;4978529;28;20081;-50
2022/01/09 11:44:42;;;;;;;13.43;2.78;;;6.40;99.90;;;;;;5002656;28;20699;-50
2022/01/09 11:47:09;;;;;;;12.02;2.38;;;6.40;99.90;;;;;;4986680;28;20442;-48
2022/01/09 11:50:01;;;;;;;16.63;2.58;;;6.40;99.90;;;;;;4995881;28;20120;-50
2022/01/09 11:52:28;;;;;;;21.63;3.90;;;6.40;99.90;;;;;;5010005;28;20046;-50
2022/01/09 11:54:56;;;;;;;20.02;3.00;;;6.50;99.90;;;;;;5007627;28;20149;-50
2022/01/09 11:57:46;;;;;;;16.48;2.92;;;6.50;99.90;;;;;;4985871;28;20069;-48
2022/01/09 12:00:47;;;;;;;16.73;2.45;;;6.60;99.90;;;;;;5008470;28;20030;-50
2022/01/09 12:03:28;;;;;;;19.73;2.63;;;6.70;99.90;;;;;;4941663;29;20046;-47
2022/01/09 12:06:01;;;;;;;19.27;3.88;;;6.80;99.90;;;;;;4999294;28;20064;-49
2022/01/09 12:08:27;;;;;;;14.65;2.58;;;6.90;99.90;;;;;;5007795;28;20042;-50
2022/01/09 12:10:53;;;;;;;11.73;2.80;;;6.90;99.90;;;;;;4989300;28;20061;-49
2022/01/09 12:13:40;;;;;;;17.17;3.00;;;6.90;99.90;;;;;;4985400;28;20251;-48
2022/01/09 12:16:08;;;;;;;16.00;2.67;;;7.00;99.90;;;;;;4999571;28;20137;-50
2022/01/09 12:18:42;;;;;;;13.95;2.47;;;7.00;99.90;;;;;;5009271;28;20034;-51
2022/01/09 12:21:31;;;;;;;18.85;2.58;;;7.00;99.90;;;;;;4994215;28;20061;-51
2022/01/09 12:24:34;;;;;;;11.63;2.33;;;7.00;99.90;;;;;;5001957;28;20065;-49
2022/01/09 12:27:35;;;;;;;11.40;2.30;;;7.10;99.90;;;;;;5006088;28;20034;-49
2022/01/09 12:30:02;;;;;;;9.80;2.03;;;6.90;99.90;;;;;;4993168;28;20045;-48
2022/01/09 12:32:38;;;;;;;17.65;2.90;;;6.80;99.90;;;;;;5006600;28;20049;-48
2022/01/09 12:35:15;;;;;;;15.32;2.25;;;6.70;99.90;;;;;;4994279;28;20431;-51
2022/01/09 12:37:50;;;;;;;11.43;2.35;;;6.60;99.90;;;;;;5016693;28;20367;-51
2022/01/09 12:40:20;;;;;;;13.07;2.55;;;6.60;99.90;;;;;;5004814;28;20041;-51
2022/01/09 12:42:50;;;;;;;12.38;1.98;;;6.60;99.90;;;;;;4990737;28;20038;-51
2022/01/09 12:45:23;;;;;;;10.95;2.03;;;6.60;99.90;;;;;;5001858;28;20116;-48
2022/01/09 12:47:49;;;;;;;17.92;2.22;;;6.60;99.90;;;;;;5016331;28;20092;-51
2022/01/09 12:50:15;;;;;;;12.18;1.95;;;6.60;99.90;;;;;;5010195;28;20038;-49
2022/01/09 12:52:41;;;;;;;12.95;2.10;;;6.60;99.90;;;;;;5009729;28;20088;-50
2022/01/09 12:55:11;;;;;;;11.80;2.45;;;6.60;99.90;;;;;;5009306;28;20057;-49
2022/01/09 12:57:50;;;;;;;13.38;2.40;;;6.60;99.90;;;;;;5010582;28;20113;-51
2022/01/09 13:00:16;;;;;;;10.18;2.60;;;6.60;99.90;;;;;;5008693;28;20045;-48
2022/01/09 13:02:52;;;;;;;13.40;2.30;;;6.50;99.90;;;;;;5010743;28;20041;-49
2022/01/09 13:05:26;;;;;;;16.48;2.47;;;6.50;99.90;;;;;;4994062;28;20061;-50